Terminal Aerodrome Forecast
Issued by NWS Charleston, WV

Current Version | Previous Version | Graphics & Text | Print | Product List | Glossary On
Versions: 1 2 3 4 5 6 7 8 9 10 11 12 13 14 15 16 17 18 19 20 21 22 23 24
370
FTUS41 KRLX 261723
TAFBKW
TAF
KBKW 261723Z 2618/2718 17010G20KT P6SM OVC050
     FM262300 17011G18KT P6SM VCTS BKN050CB
      TEMPO 2623/2703 4SM SHRA OVC025
     FM270300 18010G18KT P6SM SHRA BKN060
     FM270500 19008KT P6SM BKN035
     FM271400 23006KT P6SM BKN040=

USA.gov is the U.S. government's official web portal to all federal, state and local government web resources and services.